Time;durP1;ratioP1;P1;durP2;ratioP2;P2;SDS_P1;SDS_P2;PMS_P1;PMS_P2;Temp;Humidity;BMP_temperature;BMP_pressure;BME280_temperature;BME280_humidity;BME280_pressure;Samples;Min_cycle;Max_cycle;Signal;HPM_P1;HPM_P2
2022/07/11 00:00:02;;;;;;;2.30;1.27;;;;;;;12.98;100.00;96918.91;5091501;28;20473;-72
2022/07/11 00:02:30;;;;;;;1.50;1.10;;;;;;;12.75;100.00;96893.81;5089053;28;20424;-72
2022/07/11 00:04:56;;;;;;;2.63;1.40;;;;;;;12.87;100.00;96928.38;5069895;28;20527;-72
2022/07/11 00:07:23;;;;;;;2.43;1.40;;;;;;;12.14;100.00;96912.03;5071125;28;20452;-72
2022/07/11 00:09:50;;;;;;;1.57;1.10;;;;;;;12.39;100.00;96915.63;5070087;28;20824;-71
2022/07/11 00:12:20;;;;;;;3.17;1.10;;;;;;;12.24;100.00;96885.16;5070854;28;20468;-72
2022/07/11 00:14:48;;;;;;;2.33;1.00;;;;;;;12.42;100.00;96907.03;5090144;28;20435;-72
2022/07/11 00:17:14;;;;;;;2.67;1.10;;;;;;;12.50;100.00;96878.88;5073186;28;20463;-72
2022/07/11 00:19:41;;;;;;;3.50;1.37;;;;;;;12.37;100.00;96896.59;5091262;28;20563;-71
2022/07/11 00:22:09;;;;;;;2.47;1.20;;;;;;;12.12;100.00;96862.00;5089849;28;20496;-72
2022/07/11 00:24:35;;;;;;;1.37;1.27;;;;;;;12.36;100.00;96901.13;5089852;28;20995;-72
2022/07/11 00:27:03;;;;;;;1.37;1.27;;;;;;;12.32;100.00;96876.38;5073052;28;20462;-72
2022/07/11 00:29:30;;;;;;;2.50;1.40;;;;;;;12.66;100.00;96906.38;5089781;28;20497;-72
2022/07/11 00:31:58;;;;;;;1.83;1.20;;;;;;;12.59;100.00;96904.25;5073336;28;20467;-72
2022/07/11 00:34:25;;;;;;;2.50;1.60;;;;;;;12.57;100.00;96898.50;5089701;28;20464;-72
2022/07/11 00:36:52;;;;;;;3.23;1.57;;;;;;;12.57;100.00;96895.06;5089645;28;20455;-72
2022/07/11 00:39:19;;;;;;;1.20;1.10;;;;;;;12.01;100.00;96865.34;5091018;28;20558;-71
2022/07/11 00:41:45;;;;;;;3.03;1.50;;;;;;;11.90;100.00;96869.50;5089761;28;20451;-72
2022/07/11 00:44:12;;;;;;;1.17;1.07;;;;;;;12.14;100.00;96894.25;5089795;28;20416;-72
2022/07/11 00:46:39;;;;;;;5.30;1.53;;;;;;;12.33;100.00;96896.47;5085091;28;20463;-72
2022/07/11 00:49:06;;;;;;;3.83;1.33;;;;;;;12.46;100.00;96894.69;5069663;28;20527;-72
2022/07/11 00:51:33;;;;;;;1.27;1.17;;;;;;;12.45;100.00;96892.34;5069522;28;20462;-72
2022/07/11 00:54:00;;;;;;;2.03;1.47;;;;;;;12.38;100.00;96869.75;5069251;28;20472;-71
2022/07/11 00:56:29;;;;;;;1.83;1.33;;;;;;;12.72;100.00;96891.81;5069263;28;20440;-72
2022/07/11 00:58:58;;;;;;;2.50;1.97;;;;;;;12.63;100.00;96889.22;5069455;28;21118;-72
2022/07/11 01:01:25;;;;;;;9.30;1.80;;;;;;;12.24;100.00;96892.34;5049240;28;20494;-71
2022/07/11 01:03:52;;;;;;;2.90;1.30;;;;;;;11.95;100.00;96883.31;5069244;28;20858;-72
2022/07/11 01:06:19;;;;;;;2.20;1.40;;;;;;;12.00;100.00;96850.53;5069149;28;20531;-72
2022/07/11 01:08:46;;;;;;;4.53;1.53;;;;;;;12.34;100.00;96887.44;5052575;28;20449;-72
2022/07/11 01:11:15;;;;;;;4.93;1.60;;;;;;;12.47;100.00;96882.97;5052548;28;20433;-72
2022/07/11 01:13:44;;;;;;;3.50;1.33;;;;;;;12.65;100.00;96889.66;5069177;28;20443;-72
2022/07/11 01:16:12;;;;;;;1.30;1.17;;;;;;;12.77;100.00;96881.00;5069081;28;20456;-72
2022/07/11 01:18:44;;;;;;;6.00;1.20;;;;;;;12.72;100.00;96876.66;5069164;28;20468;-71
2022/07/11 01:21:30;;;;;;;3.10;1.83;;;;;;;12.63;100.00;96885.78;5069269;28;20416;-72
2022/07/11 01:23:59;;;;;;;2.20;1.30;;;;;;;12.58;100.00;96872.75;5072856;28;20490;-72
2022/07/11 01:26:27;;;;;;;2.00;1.40;;;;;;;12.40;100.00;96862.25;5072632;28;20436;-71
2022/07/11 01:28:59;;;;;;;1.53;1.30;;;;;;;12.50;100.00;96861.09;5072619;28;20440;-72
2022/07/11 01:31:26;;;;;;;4.50;1.67;;;;;;;12.68;100.00;96882.94;5072563;28;20463;-72
2022/07/11 01:33:53;;;;;;;4.63;1.40;;;;;;;12.61;100.00;96875.50;5072612;28;20811;-72
2022/07/11 01:36:20;;;;;;;2.40;1.40;;;;;;;12.39;100.00;96855.41;5072490;28;20865;-72
2022/07/11 01:38:46;;;;;;;1.67;1.33;;;;;;;12.22;100.00;96836.22;5073616;28;20859;-72
2022/07/11 01:41:13;;;;;;;2.30;1.40;;;;;;;12.33;100.00;96850.63;5072359;28;20838;-72
2022/07/11 01:43:40;;;;;;;1.40;1.20;;;;;;;12.61;100.00;96856.16;5072492;28;20919;-72
2022/07/11 01:46:07;;;;;;;3.00;1.63;;;;;;;12.85;100.00;96874.84;5073672;28;20511;-72
2022/07/11 01:48:34;;;;;;;4.13;1.40;;;;;;;12.77;100.00;96859.75;5058740;28;20452;-72
2022/07/11 01:51:00;;;;;;;1.50;1.40;;;;;;;12.79;100.00;96872.69;5072230;28;20455;-72
2022/07/11 01:53:27;;;;;;;2.60;1.80;;;;;;;12.52;100.00;96820.97;5061759;28;20470;-72
2022/07/11 01:55:54;;;;;;;4.23;1.30;;;;;;;12.57;100.00;96834.06;5078872;28;20837;-72
2022/07/11 01:58:40;;;;;;;1.47;1.20;;;;;;;12.61;100.00;96846.34;5092508;28;20464;-72
2022/07/11 02:01:07;;;;;;;2.00;1.30;;;;;;;12.66;100.00;96863.91;5092198;28;20439;-72
2022/07/11 02:03:34;;;;;;;3.63;1.43;;;;;;;12.44;100.00;96830.56;5093576;28;20419;-72
2022/07/11 02:06:01;;;;;;;2.43;1.33;;;;;;;12.56;100.00;96859.03;5093474;28;20988;-72
2022/07/11 02:08:28;;;;;;;2.90;1.60;;;;;;;12.50;100.00;96862.97;5075276;28;20535;-72
2022/07/11 02:10:55;;;;;;;1.93;1.50;;;;;;;12.54;100.00;96863.88;5092051;28;20510;-72
2022/07/11 02:13:25;;;;;;;2.37;1.90;;;;;;;12.55;100.00;96852.91;5092228;28;20428;-72
2022/07/11 02:15:53;;;;;;;3.37;1.87;;;;;;;12.34;100.00;96831.75;5092374;28;20450;-72
2022/07/11 02:18:20;;;;;;;3.47;1.63;;;;;;;12.17;100.00;96823.16;5092091;28;20531;-72
2022/07/11 02:20:51;;;;;;;4.23;1.67;;;;;;;12.40;100.00;96854.28;5075622;28;20443;-72
2022/07/11 02:23:19;;;;;;;4.50;2.03;;;;;;;12.36;100.00;96850.75;5092718;28;20862;-72
2022/07/11 02:25:49;;;;;;;1.50;1.37;;;;;;;12.48;100.00;96852.69;5092232;28;20518;-71
2022/07/11 02:28:16;;;;;;;2.23;1.83;;;;;;;12.37;100.00;96825.00;5093924;28;20443;-72
2022/07/11 02:30:44;;;;;;;1.77;1.30;;;;;;;12.55;100.00;96846.84;5093561;28;20522;-72
2022/07/11 02:33:13;;;;;;;4.70;1.83;;;;;;;12.54;100.00;96837.34;5093380;28;20431;-72
2022/07/11 02:35:41;;;;;;;1.53;1.43;;;;;;;12.50;100.00;96817.88;5092020;28;20423;-72
2022/07/11 02:38:08;;;;;;;2.97;1.17;;;;;;;12.55;100.00;96837.00;5075129;28;20503;-72
2022/07/11 02:40:35;;;;;;;1.53;1.43;;;;;;;12.77;100.00;96854.47;5091820;28;20545;-72
2022/07/11 02:43:02;;;;;;;3.00;1.47;;;;;;;12.88;100.00;96844.22;5061320;28;20932;-72
2022/07/11 02:45:28;;;;;;;7.80;1.37;;;;;;;12.60;100.00;96830.75;5071325;28;20486;-72
2022/07/11 02:47:55;;;;;;;1.33;1.20;;;;;;;12.62;100.00;96824.00;5071225;28;20536;-72
2022/07/11 02:50:22;;;;;;;2.83;1.50;;;;;;;12.73;100.00;96854.34;5088190;28;20494;-72
2022/07/11 02:52:49;;;;;;;2.83;1.50;;;;;;;12.57;100.00;96845.44;5070252;28;21007;-72
2022/07/11 02:55:15;;;;;;;3.93;1.63;;;;;;;12.42;100.00;96862.72;5091682;28;20438;-72
2022/07/11 02:57:42;;;;;;;3.37;1.70;;;;;;;12.05;100.00;96807.97;5092981;28;20478;-72
2022/07/11 03:00:13;;;;;;;2.23;1.43;;;;;;;11.98;100.00;96789.91;5074686;28;20888;-72
2022/07/11 03:02:40;;;;;;;5.73;1.10;;;;;;;12.10;100.00;96823.66;5092800;28;20416;-72
2022/07/11 03:05:08;;;;;;;2.50;1.37;;;;;;;12.46;100.00;96854.13;5074443;28;20435;-72
2022/07/11 03:07:34;;;;;;;2.00;1.33;;;;;;;12.52;100.00;96855.47;5074343;28;20528;-73
2022/07/11 03:10:01;;;;;;;2.17;1.10;;;;;;;12.41;100.00;96823.25;5092747;28;20423;-73
2022/07/11 03:12:28;;;;;;;1.20;1.10;;;;;;;12.68;100.00;96867.00;5074314;28;20463;-72
2022/07/11 03:14:55;;;;;;;1.77;1.60;;;;;;;12.31;100.00;96843.00;5074266;28;20452;-72
2022/07/11 03:17:22;;;;;;;2.60;2.23;;;;;;;12.58;100.00;96870.09;5074787;28;20509;-72
2022/07/11 03:19:49;;;;;;;4.50;1.20;;;;;;;12.20;100.00;96833.88;5091233;28;20490;-72
2022/07/11 03:22:16;;;;;;;1.30;1.20;;;;;;;12.53;100.00;96849.81;5091149;28;20435;-72
2022/07/11 03:24:43;;;;;;;3.20;1.73;;;;;;;12.50;100.00;96847.06;5090874;28;20839;-72
2022/07/11 03:27:10;;;;;;;2.10;1.30;;;;;;;12.38;100.00;96859.16;5090930;28;20994;-72
2022/07/11 03:29:40;;;;;;;1.87;1.20;;;;;;;12.35;100.00;96856.38;5090983;28;20442;-72
2022/07/11 03:32:08;;;;;;;1.57;1.13;;;;;;;12.56;100.00;96843.91;5074271;28;20426;-72
2022/07/11 03:34:36;;;;;;;1.80;1.70;;;;;;;12.63;100.00;96848.66;5091010;28;20496;-71
2022/07/11 03:37:03;;;;;;;1.93;1.60;;;;;;;12.66;100.00;96855.97;5074209;28;20471;-72
2022/07/11 03:39:30;;;;;;;3.50;1.43;;;;;;;12.66;100.00;96850.66;5090835;28;20464;-72
2022/07/11 03:41:58;;;;;;;2.00;1.23;;;;;;;12.79;100.00;96857.56;5090622;28;20438;-71
2022/07/11 03:44:24;;;;;;;4.20;1.50;;;;;;;12.77;100.00;96856.34;5073596;28;20996;-72
2022/07/11 03:46:51;;;;;;;1.30;1.20;;;;;;;12.31;100.00;96827.09;5085113;28;20576;-72
2022/07/11 03:49:18;;;;;;;3.90;1.30;;;;;;;12.31;100.00;96858.91;5086917;28;20531;-72
2022/07/11 03:51:44;;;;;;;2.20;1.57;;;;;;;11.96;100.00;96847.00;5070011;28;20448;-72
2022/07/11 03:54:11;;;;;;;3.33;1.27;;;;;;;12.12;100.00;96866.53;5082922;28;20561;-71
2022/07/11 03:56:38;;;;;;;4.03;1.37;;;;;;;11.95;100.00;96840.13;5071156;28;20939;-72
2022/07/11 03:59:04;;;;;;;1.80;1.50;;;;;;;12.14;100.00;96846.53;5069802;28;20513;-72
2022/07/11 04:01:31;;;;;;;1.43;1.10;;;;;;;12.24;100.00;96860.53;5069747;28;20475;-71
2022/07/11 04:03:58;;;;;;;2.30;1.30;;;;;;;12.17;100.00;96847.78;5069792;28;20436;-72
2022/07/11 04:06:25;;;;;;;1.80;1.17;;;;;;;12.44;100.00;96873.00;5071016;28;20482;-72
2022/07/11 04:08:52;;;;;;;1.37;1.20;;;;;;;12.43;100.00;96866.16;5069779;28;20464;-72
2022/07/11 04:11:19;;;;;;;1.30;1.20;;;;;;;12.55;100.00;96879.44;5071087;28;20468;-72
2022/07/11 04:13:46;;;;;;;1.40;1.27;;;;;;;12.17;100.00;96866.34;5070976;28;20417;-72
2022/07/11 04:16:13;;;;;;;1.20;1.10;;;;;;;12.40;100.00;96856.94;5069509;28;20528;-72
2022/07/11 04:18:40;;;;;;;4.37;1.80;;;;;;;12.50;100.00;96870.94;5086293;28;20534;-72
2022/07/11 04:21:07;;;;;;;2.10;1.40;;;;;;;12.62;100.00;96871.75;5069476;28;20928;-72
2022/07/11 04:23:35;;;;;;;1.93;1.10;;;;;;;12.72;100.00;96867.94;5069624;28;20427;-71
2022/07/11 04:26:03;;;;;;;1.80;1.40;;;;;;;12.32;100.00;96849.09;5069543;28;20467;-71
2022/07/11 04:28:30;;;;;;;1.50;1.40;;;;;;;12.64;100.00;96877.50;5052915;28;20991;-71
2022/07/11 04:30:57;;;;;;;3.83;1.50;;;;;;;12.39;100.00;96849.31;5077350;28;20440;-71
2022/07/11 04:33:24;;;;;;;1.53;1.37;;;;;;;12.61;100.00;96878.16;5089752;28;20807;-71
2022/07/11 04:35:51;;;;;;;1.90;1.60;;;;;;;12.80;100.00;96887.53;5069570;28;20428;-72
2022/07/11 04:38:21;;;;;;;2.47;1.03;;;;;;;12.64;100.00;96885.47;5086147;28;20882;-71
2022/07/11 04:40:48;;;;;;;1.00;0.97;;;;;;;12.58;100.00;96846.22;5052936;28;20907;-71
2022/07/11 04:43:16;;;;;;;1.53;1.10;;;;;;;12.77;100.00;96861.63;5088590;28;20487;-72
2022/07/11 04:45:43;;;;;;;2.80;1.40;;;;;;;12.53;100.00;96846.41;5073027;28;20427;-72
2022/07/11 04:48:10;;;;;;;1.37;1.27;;;;;;;12.98;100.00;96873.00;5076105;28;20962;-71
2022/07/11 04:50:37;;;;;;;2.73;1.07;;;;;;;13.03;100.00;96876.22;5089645;28;20419;-71
2022/07/11 04:53:04;;;;;;;1.77;1.03;;;;;;;13.00;100.00;96866.25;5082098;28;20470;-71
2022/07/11 04:55:31;;;;;;;1.27;1.17;;;;;;;12.93;100.00;96849.31;5070610;28;20424;-71
2022/07/11 04:57:58;;;;;;;2.10;1.03;;;;;;;13.02;100.00;96879.19;5050480;28;20458;-71
2022/07/11 05:00:25;;;;;;;1.20;1.07;;;;;;;12.87;100.00;96885.91;5056467;28;20451;-71
2022/07/11 05:02:51;;;;;;;1.20;1.10;;;;;;;12.91;100.00;96873.50;5072979;28;20444;-71
2022/07/11 05:05:19;;;;;;;3.03;1.30;;;;;;;12.55;100.00;96868.06;5073046;28;20523;-71
2022/07/11 05:07:46;;;;;;;2.17;1.20;;;;;;;12.64;100.00;96890.00;5072892;28;20452;-72
2022/07/11 05:10:13;;;;;;;2.03;1.07;;;;;;;12.69;100.00;96877.31;5074237;28;20828;-71
2022/07/11 05:12:40;;;;;;;2.10;1.53;;;;;;;12.85;100.00;96872.19;5074144;28;20435;-71
2022/07/11 05:15:08;;;;;;;1.20;1.07;;;;;;;12.62;100.00;96892.22;5072846;28;20505;-72
2022/07/11 05:17:35;;;;;;;3.80;1.30;;;;;;;13.00;100.00;96907.94;5072898;28;20437;-72
2022/07/11 05:20:02;;;;;;;1.23;1.10;;;;;;;13.11;100.00;96890.50;5072714;28;20468;-71
2022/07/11 05:22:29;;;;;;;1.93;1.20;;;;;;;13.30;100.00;96914.69;5072768;28;20559;-72
2022/07/11 05:24:56;;;;;;;3.03;1.57;;;;;;;13.22;100.00;96910.28;5072766;28;20428;-71
2022/07/11 05:27:23;;;;;;;1.40;1.20;;;;;;;13.32;100.00;96888.56;5073887;28;20452;-71
2022/07/11 05:29:49;;;;;;;3.10;1.40;;;;;;;13.47;100.00;96900.44;5056118;28;20518;-71
2022/07/11 05:32:16;;;;;;;2.30;1.40;;;;;;;13.23;100.00;96903.06;5079390;28;20476;-71
2022/07/11 05:34:43;;;;;;;1.80;1.10;;;;;;;13.15;100.00;96904.66;5075809;28;20863;-71
2022/07/11 05:37:09;;;;;;;4.57;1.33;;;;;;;13.34;100.00;96906.84;5055889;28;20456;-71
2022/07/11 05:39:36;;;;;;;2.90;1.10;;;;;;;12.96;100.00;96913.16;5072410;28;20463;-71
2022/07/11 05:42:03;;;;;;;1.80;1.10;;;;;;;12.68;100.00;96909.47;5072380;28;20432;-71
2022/07/11 05:44:30;;;;;;;1.27;1.17;;;;;;;12.57;100.00;96918.94;5055754;28;21250;-71
2022/07/11 05:47:01;;;;;;;1.57;1.30;;;;;;;12.51;100.00;96907.72;5089100;28;20452;-71
2022/07/11 05:49:30;;;;;;;1.90;1.80;;;;;;;12.28;100.00;96888.69;5058638;28;20432;-71
2022/07/11 05:51:57;;;;;;;1.77;1.20;;;;;;;12.36;100.00;96881.78;5072229;28;20515;-71
2022/07/11 05:54:24;;;;;;;1.53;1.43;;;;;;;12.46;100.00;96884.06;5056087;28;20491;-71
2022/07/11 05:56:51;;;;;;;1.73;1.30;;;;;;;12.82;100.00;96903.88;5092328;28;20512;-71
2022/07/11 05:59:17;;;;;;;0.97;0.90;;;;;;;13.03;100.00;96872.78;5075430;28;20467;-71
2022/07/11 06:01:44;;;;;;;1.20;1.10;;;;;;;13.17;100.00;96891.84;5075586;28;20436;-71
2022/07/11 06:04:11;;;;;;;0.97;0.97;;;;;;;13.33;100.00;96905.28;5092102;28;20432;-71
2022/07/11 06:06:38;;;;;;;1.47;1.20;;;;;;;13.16;100.00;96905.44;5075312;28;20464;-71
2022/07/11 06:09:04;;;;;;;1.90;1.10;;;;;;;13.30;100.00;96906.72;5091695;28;20432;-71
2022/07/11 06:11:31;;;;;;;1.17;1.00;;;;;;;13.18;100.00;96885.44;5092055;28;20983;-71
2022/07/11 06:13:58;;;;;;;4.23;1.40;;;;;;;13.35;100.00;96907.63;5092055;28;20423;-71
2022/07/11 06:16:26;;;;;;;1.83;1.70;;;;;;;13.70;100.00;96900.78;5093245;28;20439;-71
2022/07/11 06:18:54;;;;;;;1.47;1.20;;;;;;;13.75;100.00;96894.47;5091822;28;20483;-71
2022/07/11 06:21:21;;;;;;;2.10;1.10;;;;;;;13.96;100.00;96913.75;5078259;28;20459;-71
2022/07/11 06:23:48;;;;;;;2.20;1.20;;;;;;;13.64;100.00;96880.09;5071536;28;20928;-71
2022/07/11 06:26:15;;;;;;;4.03;1.57;;;;;;;13.75;100.00;96892.59;5071536;28;20451;-71
2022/07/11 06:28:42;;;;;;;5.80;1.63;;;;;;;13.95;100.00;96914.88;5054919;28;20461;-71
2022/07/11 06:31:09;;;;;;;6.53;1.97;;;;;;;13.89;100.00;96890.41;5088328;28;20448;-72
2022/07/11 06:33:36;;;;;;;6.73;3.53;;;;;;;13.76;100.00;96894.19;5087824;28;20459;-72
2022/07/11 06:36:04;;;;;;;1.93;1.07;;;;;;;14.29;100.00;96913.63;5091994;28;20484;-72
2022/07/11 06:38:31;;;;;;;2.20;1.20;;;;;;;14.05;100.00;96917.09;5091444;28;20463;-72
2022/07/11 06:40:59;;;;;;;3.03;1.17;;;;;;;13.83;100.00;96925.50;5092866;28;20877;-72
2022/07/11 06:43:27;;;;;;;1.60;1.50;;;;;;;13.53;100.00;96916.97;5092792;28;20477;-72
2022/07/11 06:45:54;;;;;;;3.73;1.43;;;;;;;13.20;100.00;96874.50;5074677;28;20491;-72
2022/07/11 06:48:21;;;;;;;1.07;0.97;;;;;;;13.77;100.00;96922.31;5072940;28;20515;-72
2022/07/11 06:50:48;;;;;;;1.20;0.93;;;;;;;14.13;100.00;96910.09;5072530;28;20438;-72
2022/07/11 06:53:15;;;;;;;1.83;1.40;;;;;;;14.38;100.00;96892.97;5069250;28;20435;-72
2022/07/11 06:55:41;;;;;;;1.20;1.10;;;;;;;14.42;100.00;96896.53;5071095;28;20506;-72
2022/07/11 06:58:08;;;;;;;1.13;1.03;;;;;;;14.76;100.00;96884.56;5072206;28;20486;-72
2022/07/11 07:00:51;;;;;;;1.30;1.20;;;;;;;15.12;100.00;96909.50;5072160;28;20944;-72
2022/07/11 07:03:18;;;;;;;1.30;0.90;;;;;;;15.01;100.00;96919.09;5054343;28;20442;-72
2022/07/11 07:05:47;;;;;;;2.50;1.40;;;;;;;14.95;100.00;96918.53;5054828;28;20464;-72
2022/07/11 07:08:14;;;;;;;3.33;1.03;;;;;;;14.63;100.00;96915.00;5054388;28;20817;-72
2022/07/11 07:10:41;;;;;;;1.47;0.90;;;;;;;14.45;100.00;96929.69;5070587;28;20935;-72
2022/07/11 07:13:07;;;;;;;2.50;1.23;;;;;;;14.63;100.00;96916.91;5072101;28;20475;-72
2022/07/11 07:15:34;;;;;;;1.20;0.90;;;;;;;14.61;100.00;96917.22;5053841;28;20502;-72
2022/07/11 07:18:01;;;;;;;1.57;1.00;;;;;;;14.56;100.00;96925.47;5087401;28;20491;-72
2022/07/11 07:20:29;;;;;;;1.10;1.00;;;;;;;14.59;100.00;96910.69;5053442;28;20453;-72
2022/07/11 07:22:57;;;;;;;1.73;1.60;;;;;;;14.82;100.00;96924.25;5070519;28;20857;-72
2022/07/11 07:25:24;;;;;;;5.40;1.07;;;;;;;14.94;100.00;96926.88;5070376;28;20459;-72
2022/07/11 07:27:52;;;;;;;2.70;1.00;;;;;;;14.77;100.00;96923.38;5071681;28;20498;-72
2022/07/11 07:30:19;;;;;;;3.23;1.00;;;;;;;14.86;100.00;96923.25;5087067;28;20425;-72
2022/07/11 07:32:45;;;;;;;1.10;0.80;;;;;;;14.57;100.00;96924.34;5070248;28;20536;-72
2022/07/11 07:35:12;;;;;;;1.00;0.83;;;;;;;14.55;100.00;96917.78;5071553;28;20467;-72
2022/07/11 07:37:39;;;;;;;3.17;0.70;;;;;;;14.98;100.00;96925.09;5053670;28;20457;-72
2022/07/11 07:40:06;;;;;;;1.17;0.70;;;;;;;14.72;100.00;96917.53;5070105;28;20507;-72
2022/07/11 07:42:33;;;;;;;1.00;0.70;;;;;;;15.08;100.00;96919.25;5070280;28;20463;-72
2022/07/11 07:44:59;;;;;;;3.37;1.17;;;;;;;15.10;100.00;96918.94;5083435;28;20846;-72
2022/07/11 07:47:27;;;;;;;1.33;0.93;;;;;;;15.31;100.00;96928.25;5060770;28;20487;-72
2022/07/11 07:49:55;;;;;;;3.07;0.90;;;;;;;15.00;100.00;96914.88;5071342;28;20432;-72
2022/07/11 07:52:22;;;;;;;4.30;0.70;;;;;;;15.05;100.00;96907.41;5068595;28;20510;-72
2022/07/11 07:54:48;;;;;;;2.43;0.93;;;;;;;15.40;100.00;96930.00;5085936;28;20439;-72
2022/07/11 07:57:15;;;;;;;0.80;0.80;;;;;;;15.18;100.00;96913.44;5090009;28;20515;-72
2022/07/11 07:59:42;;;;;;;0.90;0.70;;;;;;;15.40;100.00;96940.66;5073260;28;20431;-72
2022/07/11 08:02:08;;;;;;;1.20;0.97;;;;;;;15.49;100.00;96925.25;5073386;28;20443;-72
2022/07/11 08:04:36;;;;;;;0.80;0.80;;;;;;;15.69;100.00;96926.94;5090029;28;21080;-72
2022/07/11 08:07:03;;;;;;;0.80;0.80;;;;;;;15.45;100.00;96906.50;5090060;28;20454;-72
2022/07/11 08:09:30;;;;;;;0.80;0.80;;;;;;;15.25;100.00;96934.19;5091576;28;20876;-72
2022/07/11 08:11:56;;;;;;;0.70;0.70;;;;;;;15.11;100.00;96929.25;5073260;28;20458;-72
2022/07/11 08:14:23;;;;;;;0.97;0.87;;;;;;;15.35;100.00;96886.47;5089934;28;20434;-72
2022/07/11 08:16:50;;;;;;;1.33;1.00;;;;;;;15.41;100.00;96928.88;5073087;28;20476;-72
2022/07/11 08:19:18;;;;;;;0.93;0.73;;;;;;;15.66;100.00;96909.75;5089865;28;20433;-72
2022/07/11 08:21:45;;;;;;;1.90;1.00;;;;;;;15.67;100.00;96921.19;5072975;28;20487;-72
2022/07/11 08:24:12;;;;;;;1.33;0.97;;;;;;;15.90;100.00;96918.69;5073044;28;20502;-72
2022/07/11 08:26:38;;;;;;;0.80;0.80;;;;;;;16.13;100.00;96908.91;5089733;28;20515;-72
2022/07/11 08:29:05;;;;;;;1.47;1.00;;;;;;;16.58;100.00;96928.19;5089827;28;20492;-73
2022/07/11 08:31:32;;;;;;;1.30;0.90;;;;;;;16.04;100.00;96928.91;5073333;28;20431;-72
2022/07/11 08:33:59;;;;;;;1.83;1.00;;;;;;;15.92;100.00;96935.13;5095257;28;20431;-72
2022/07/11 08:36:34;;;;;;;1.20;1.10;;;;;;;15.83;100.00;96937.94;5077170;28;20439;-73
2022/07/11 08:39:02;;;;;;;2.60;1.10;;;;;;;16.06;100.00;96900.75;5094215;28;20496;-72
2022/07/11 08:41:31;;;;;;;1.30;0.80;;;;;;;16.48;100.00;96916.91;5093654;28;20882;-72
2022/07/11 08:43:59;;;;;;;1.10;0.93;;;;;;;16.34;100.00;96937.19;5093889;28;20423;-72
2022/07/11 08:46:27;;;;;;;2.40;0.93;;;;;;;16.55;100.00;96941.09;5091164;28;20435;-72
2022/07/11 08:48:55;;;;;;;0.80;0.80;;;;;;;15.86;100.00;96915.16;5073294;28;20464;-72
2022/07/11 08:51:23;;;;;;;2.50;0.93;;;;;;;16.37;100.00;96939.94;5074673;28;20425;-72
2022/07/11 08:53:50;;;;;;;1.00;0.90;;;;;;;16.22;100.00;96938.06;5071363;28;20484;-72
2022/07/11 08:56:19;;;;;;;1.03;0.93;;;;;;;16.07;100.00;96912.19;5073205;28;20482;-72
2022/07/11 08:58:47;;;;;;;0.97;0.90;;;;;;;16.19;100.00;96926.22;5056598;28;20452;-72
2022/07/11 09:01:34;;;;;;;1.73;1.20;;;;;;;16.90;100.00;96936.84;5057434;28;20929;-72
2022/07/11 09:04:01;;;;;;;1.00;0.80;;;;;;;16.73;100.00;96936.16;5073138;28;20455;-72
2022/07/11 09:06:28;;;;;;;0.80;0.80;;;;;;;16.47;100.00;96934.06;5073312;28;20528;-72
2022/07/11 09:09:00;;;;;;;0.87;0.70;;;;;;;17.29;100.00;96940.28;5073077;28;20424;-72
2022/07/11 09:11:27;;;;;;;1.20;0.80;;;;;;;16.76;100.00;96897.28;5082736;28;20423;-72
2022/07/11 09:13:54;;;;;;;1.30;0.80;;;;;;;16.89;100.00;96929.97;5076510;28;20439;-72
2022/07/11 09:16:26;;;;;;;3.47;1.30;;;;;;;17.16;100.00;96920.19;5067373;28;20498;-72
2022/07/11 09:18:58;;;;;;;0.80;0.80;;;;;;;16.98;99.67;96909.94;5072792;28;21025;-72
2022/07/11 09:26:55;;;;;;;1.03;0.93;;;;;;;16.80;100.00;96908.81;5072534;28;20514;-72
2022/07/11 09:29:25;;;;;;;0.90;0.90;;;;;;;17.15;99.04;96906.03;5082008;28;20937;-72
2022/07/11 09:31:52;;;;;;;0.90;0.90;;;;;;;17.34;97.94;96905.22;5089932;28;20436;-71
2022/07/11 09:34:23;;;;;;;1.70;0.80;;;;;;;17.60;96.36;96902.59;5062916;28;20472;-72
2022/07/11 09:36:54;;;;;;;1.33;1.00;;;;;;;17.72;93.82;96913.16;5070699;28;20428;-71
2022/07/11 09:39:27;;;;;;;2.10;0.90;;;;;;;17.63;94.73;96922.53;5072939;28;21153;-72
2022/07/11 09:41:55;;;;;;;3.27;1.00;;;;;;;17.64;94.76;96922.19;5072392;28;20483;-73
2022/07/11 09:44:24;;;;;;;1.30;1.00;;;;;;;17.32;95.15;96926.97;5072968;28;20442;-73
2022/07/11 09:46:52;;;;;;;2.23;0.90;;;;;;;17.44;94.09;96892.03;5072302;28;20456;-72
2022/07/11 09:49:35;;;;;;;0.90;0.80;;;;;;;17.71;92.21;96926.88;5072369;28;20428;-70
2022/07/11 09:52:13;;;;;;;1.00;0.90;;;;;;;17.94;93.01;96941.03;5073657;28;20424;-70
2022/07/11 09:54:54;;;;;;;0.80;0.80;;;;;;;17.11;92.29;96932.72;5069277;28;20486;-71
2022/07/11 09:57:35;;;;;;;0.93;0.90;;;;;;;17.23;94.49;96923.75;5072174;28;20499;-71
2022/07/11 10:00:08;;;;;;;1.13;1.03;;;;;;;17.54;95.18;96922.78;5072155;28;20489;-71
2022/07/11 10:02:35;;;;;;;2.77;1.00;;;;;;;17.37;92.36;96920.56;5073604;28;20807;-71
2022/07/11 10:05:03;;;;;;;1.10;1.00;;;;;;;17.13;96.78;96927.00;5055504;28;20432;-71
2022/07/11 10:07:31;;;;;;;2.60;1.10;;;;;;;17.21;97.20;96933.25;5071968;28;20479;-71
2022/07/11 10:09:59;;;;;;;1.33;1.17;;;;;;;17.44;96.23;96931.38;5071982;28;20436;-71
2022/07/11 10:12:27;;;;;;;2.10;1.10;;;;;;;17.34;95.46;96943.41;5055214;28;20932;-71
2022/07/11 10:14:56;;;;;;;1.57;0.97;;;;;;;17.33;96.54;96935.75;5081636;28;20479;-71
2022/07/11 10:17:47;;;;;;;1.40;1.00;;;;;;;17.97;93.62;96936.84;5075209;28;20506;-71
2022/07/11 10:20:27;;;;;;;3.37;1.73;;;;;;;17.63;94.62;96934.00;5075653;28;20473;-71
2022/07/11 10:23:04;;;;;;;0.97;0.87;;;;;;;16.91;96.34;96920.47;5075287;28;20972;-71
2022/07/11 10:25:42;;;;;;;1.83;1.10;;;;;;;17.28;95.75;96944.06;5058300;28;20511;-71
2022/07/11 10:28:21;;;;;;;1.10;1.00;;;;;;;17.03;96.10;96936.34;5073076;28;20479;-71
2022/07/11 10:30:50;;;;;;;2.53;0.80;;;;;;;16.63;99.27;96935.91;5071699;28;21166;-71
2022/07/11 10:33:18;;;;;;;1.63;1.00;;;;;;;16.96;100.00;96932.75;5071307;28;20450;-71
2022/07/11 10:35:49;;;;;;;4.97;1.30;;;;;;;17.04;99.32;96937.91;5072724;28;20490;-71
2022/07/11 10:38:17;;;;;;;1.53;1.20;;;;;;;17.69;96.70;96921.13;5072605;28;20444;-71
2022/07/11 10:40:45;;;;;;;1.20;1.10;;;;;;;17.96;95.52;96949.47;5071175;28;20507;-71
2022/07/11 10:43:33;;;;;;;1.03;0.90;;;;;;;18.24;93.75;96949.13;5072628;28;20432;-71
2022/07/11 10:46:18;;;;;;;2.60;0.90;;;;;;;17.71;94.09;96946.38;5054710;28;20865;-71
2022/07/11 10:49:02;;;;;;;1.00;1.00;;;;;;;17.49;95.61;96955.13;5072688;28;20533;-71
2022/07/11 10:51:43;;;;;;;3.37;1.03;;;;;;;17.42;96.62;96953.13;5085709;28;21001;-71
2022/07/11 10:54:32;;;;;;;1.00;0.90;;;;;;;16.91;99.66;96930.38;5071859;28;20439;-71
2022/07/11 10:57:31;;;;;;;2.30;0.90;;;;;;;17.09;99.48;96947.53;5070052;28;20808;-71
2022/07/11 11:00:08;;;;;;;1.20;1.07;;;;;;;16.75;100.00;96919.78;5071177;28;20527;-71
2022/07/11 11:03:06;;;;;;;1.40;1.03;;;;;;;17.13;100.00;96951.06;5087114;28;20548;-71
2022/07/11 11:05:44;;;;;;;1.20;0.97;;;;;;;17.89;97.53;96945.91;5091104;28;20473;-71
2022/07/11 11:08:35;;;;;;;1.13;1.00;;;;;;;17.71;98.59;96950.97;5092290;28;20869;-71
2022/07/11 11:11:07;;;;;;;1.30;1.03;;;;;;;18.02;94.84;96917.81;5090853;28;20455;-71
2022/07/11 11:13:35;;;;;;;2.50;0.90;;;;;;;18.09;95.11;96942.00;5090953;28;20463;-71
2022/07/11 11:16:18;;;;;;;0.80;0.80;;;;;;;18.19;96.26;96944.09;5091100;28;20448;-71
2022/07/11 11:18:45;;;;;;;3.53;1.10;;;;;;;18.27;94.92;96918.19;5090700;28;20470;-71
2022/07/11 11:21:13;;;;;;;1.30;1.17;;;;;;;18.59;92.80;96927.44;5090585;28;20841;-71
2022/07/11 11:23:41;;;;;;;1.00;0.90;;;;;;;19.18;92.11;96909.75;5073814;28;20481;-71
2022/07/11 11:26:22;;;;;;;1.43;0.90;;;;;;;20.02;88.88;96936.94;5090687;28;20529;-71
2022/07/11 11:28:54;;;;;;;1.10;0.97;;;;;;;20.41;85.82;96934.53;5090507;28;20484;-71
2022/07/11 11:31:21;;;;;;;1.77;1.17;;;;;;;19.49;86.80;96913.09;5090900;28;20534;-71
2022/07/11 11:33:48;;;;;;;3.83;1.10;;;;;;;19.59;87.46;96919.75;5090492;28;20463;-71
2022/07/11 11:36:17;;;;;;;0.70;0.70;;;;;;;18.92;84.13;96925.94;5090503;28;20865;-71
2022/07/11 11:38:46;;;;;;;0.90;0.80;;;;;;;18.63;87.07;96913.31;5073594;28;20572;-71